createdAt,value
2022-11-09T00:01:43.401Z,74.83
2022-11-09T00:04:11.063Z,74.03
2022-11-09T00:06:38.070Z,74.23
2022-11-09T00:09:08.099Z,74.58
2022-11-09T00:11:36.219Z,74.44
2022-11-09T00:14:03.064Z,74.21
2022-11-09T00:16:29.595Z,74.36
2022-11-09T00:18:56.305Z,74.29
2022-11-09T00:21:24.947Z,74.20
2022-11-09T00:23:52.701Z,74.86
2022-11-09T00:26:20.658Z,74.16
2022-11-09T00:28:47.756Z,74.38
2022-11-09T00:31:20.554Z,74.12
2022-11-09T00:33:52.126Z,74.40
2022-11-09T00:36:20.987Z,74.74
2022-11-09T00:38:52.891Z,74.70
2022-11-09T00:41:20.183Z,75.16
2022-11-09T00:43:47.783Z,74.41
2022-11-09T00:46:15.336Z,74.87
2022-11-09T00:48:42.121Z,74.91
2022-11-09T00:51:09.423Z,75.60
2022-11-09T00:53:36.207Z,75.31
2022-11-09T00:56:08.814Z,75.12
2022-11-09T00:58:38.359Z,75.60
2022-11-09T01:01:17.371Z,75.69
2022-11-09T01:03:45.241Z,76.29
2022-11-09T01:06:24.024Z,77.41
2022-11-09T01:08:51.228Z,76.73
2022-11-09T01:11:19.491Z,76.95
2022-11-09T01:13:46.601Z,77.14
2022-11-09T01:16:16.458Z,77.26
2022-11-09T01:18:43.428Z,78.02
2022-11-09T01:21:13.286Z,78.05
2022-11-09T01:23:40.629Z,78.10
2022-11-09T01:26:09.782Z,78.51
2022-11-09T01:28:36.945Z,78.66
2022-11-09T01:31:10.613Z,78.56
2022-11-09T01:33:37.120Z,78.33
2022-11-09T01:36:09.086Z,79.41
2022-11-09T01:38:37.922Z,79.72
2022-11-09T01:41:06.805Z,79.89
2022-11-09T01:43:33.730Z,80.34
2022-11-09T01:46:26.123Z,80.28
2022-11-09T01:48:55.516Z,81.25
2022-11-09T01:51:36.746Z,81.62
2022-11-09T01:54:27.595Z,81.93
2022-11-09T01:56:59.861Z,81.93
2022-11-09T01:59:32.006Z,81.55
2022-11-09T02:02:00.794Z,82.16
2022-11-09T02:04:33.771Z,81.62
2022-11-09T02:07:00.746Z,82.34
2022-11-09T02:09:39.366Z,82.06
2022-11-09T02:12:07.321Z,82.23
2022-11-09T02:14:36.485Z,82.29
2022-11-09T02:17:03.326Z,82.96
2022-11-09T02:19:30.075Z,83.23
2022-11-09T02:21:57.155Z,83.60
2022-11-09T02:24:23.758Z,83.06
2022-11-09T02:26:52.656Z,84.05
2022-11-09T02:29:23.854Z,84.05
2022-11-09T02:31:54.629Z,83.91
2022-11-09T02:34:22.302Z,85.34
2022-11-09T02:36:48.955Z,85.05
2022-11-09T02:39:18.827Z,85.12
2022-11-09T02:41:51.779Z,85.58
2022-11-09T02:44:19.016Z,86.62
2022-11-09T02:46:46.261Z,87.51
2022-11-09T02:49:12.956Z,87.65
2022-11-09T02:51:39.622Z,87.90
2022-11-09T02:54:06.388Z,87.45
2022-11-09T02:56:33.115Z,88.54
2022-11-09T02:58:59.733Z,88.54
2022-11-09T03:01:26.450Z,88.69
2022-11-09T03:03:53.084Z,88.50
2022-11-09T03:06:19.774Z,88.10
2022-11-09T03:08:46.639Z,88.62
2022-11-09T03:11:13.183Z,88.13
2022-11-09T03:13:39.881Z,88.91
2022-11-09T03:16:07.484Z,88.26
2022-11-09T03:18:34.173Z,88.43
2022-11-09T03:21:02.316Z,91.04
2022-11-09T03:23:29.382Z,92.97
2022-11-09T03:25:56.050Z,94.32
2022-11-09T03:28:22.770Z,96.44
2022-11-09T03:30:49.467Z,98.98
2022-11-09T03:33:16.270Z,100.00
2022-11-09T03:35:43.983Z,100.00
2022-11-09T03:38:10.735Z,100.00
2022-11-09T03:40:37.530Z,100.00
2022-11-09T03:43:04.196Z,100.00
2022-11-09T03:45:30.915Z,100.00
2022-11-09T03:48:00.251Z,100.00
2022-11-09T03:50:28.691Z,100.00
2022-11-09T03:52:55.802Z,100.00
2022-11-09T03:55:22.926Z,100.00
2022-11-09T03:57:49.730Z,100.00
2022-11-09T04:00:19.132Z,100.00
2022-11-09T04:02:45.865Z,100.00
2022-11-09T04:05:13.051Z,100.00
2022-11-09T04:07:40.100Z,100.00
2022-11-09T04:10:07.729Z,100.00
2022-11-09T04:12:34.628Z,100.00
2022-11-09T04:15:01.223Z,100.00
2022-11-09T04:17:27.916Z,100.00
2022-11-09T04:19:54.586Z,100.00
2022-11-09T04:22:21.261Z,100.00
2022-11-09T04:24:47.902Z,100.00
2022-11-09T04:27:14.469Z,100.00
2022-11-09T04:29:41.198Z,100.00
2022-11-09T04:32:07.906Z,100.00
2022-11-09T04:34:34.477Z,100.00
2022-11-09T04:37:02.058Z,100.00
2022-11-09T04:39:28.633Z,100.00
2022-11-09T04:41:55.236Z,100.00
2022-11-09T04:44:21.737Z,100.00
2022-11-09T04:46:48.296Z,100.00
2022-11-09T04:49:14.987Z,100.00
2022-11-09T04:51:41.620Z,100.00
2022-11-09T04:54:08.325Z,100.00
2022-11-09T04:56:35.044Z,100.00
2022-11-09T04:59:02.135Z,100.00
2022-11-09T05:01:28.822Z,100.00
2022-11-09T05:03:55.617Z,100.00
2022-11-09T05:06:34.427Z,100.00
2022-11-09T05:09:04.822Z,100.00
2022-11-09T05:11:32.635Z,100.00
2022-11-09T05:13:59.888Z,100.00
2022-11-09T05:16:26.570Z,100.00
2022-11-09T05:18:53.216Z,100.00
2022-11-09T05:21:19.883Z,100.00
2022-11-09T05:23:59.131Z,100.00
2022-11-09T05:26:37.737Z,100.00
2022-11-09T05:29:07.716Z,100.00
2022-11-09T05:31:34.732Z,100.00
2022-11-09T05:34:01.855Z,100.00
2022-11-09T05:36:29.677Z,100.00
2022-11-09T05:38:56.815Z,100.00
2022-11-09T05:41:24.051Z,100.00
2022-11-09T05:43:50.703Z,100.00
2022-11-09T05:46:18.209Z,100.00
2022-11-09T05:48:45.446Z,100.00
2022-11-09T05:51:14.235Z,100.00
2022-11-09T05:53:45.152Z,100.00
2022-11-09T05:56:13.724Z,100.00
2022-11-09T05:58:41.488Z,100.00
2022-11-09T06:01:11.454Z,100.00
2022-11-09T06:03:38.408Z,100.00
2022-11-09T06:06:08.799Z,100.00
2022-11-09T06:08:36.165Z,100.00
2022-11-09T06:11:09.092Z,100.00
2022-11-09T06:13:36.490Z,100.00
2022-11-09T06:16:05.031Z,100.00
2022-11-09T06:18:33.668Z,100.00
2022-11-09T06:21:02.827Z,100.00
2022-11-09T06:23:30.393Z,100.00
2022-11-09T06:25:57.815Z,100.00
2022-11-09T06:28:24.746Z,100.00
2022-11-09T06:30:51.838Z,100.00
2022-11-09T06:33:18.795Z,100.00
2022-11-09T06:35:45.625Z,100.00
2022-11-09T06:38:12.217Z,100.00
2022-11-09T06:40:39.447Z,100.00
2022-11-09T06:43:06.892Z,100.00
2022-11-09T06:45:34.569Z,100.00
2022-11-09T06:48:03.226Z,100.00
2022-11-09T06:50:32.347Z,100.00
2022-11-09T06:53:04.100Z,100.00
2022-11-09T06:55:32.614Z,100.00
2022-11-09T06:58:00.193Z,100.00
2022-11-09T07:00:28.452Z,100.00
2022-11-09T07:02:55.033Z,100.00
2022-11-09T07:05:21.846Z,100.00
2022-11-09T07:07:48.925Z,100.00
2022-11-09T07:10:16.403Z,100.00
2022-11-09T07:12:43.099Z,100.00
2022-11-09T07:15:11.714Z,100.00
2022-11-09T07:17:39.947Z,100.00
2022-11-09T07:20:08.925Z,100.00
2022-11-09T07:22:39.552Z,100.00
2022-11-09T07:25:11.301Z,100.00
2022-11-09T07:27:37.893Z,100.00
2022-11-09T07:30:05.179Z,100.00
2022-11-09T07:35:23.642Z,100.00
2022-11-09T07:37:50.293Z,100.00
2022-11-09T07:40:17.250Z,100.00
2022-11-09T07:42:43.982Z,100.00
2022-11-09T07:45:11.074Z,100.00
2022-11-09T07:47:37.684Z,100.00
2022-11-09T07:50:04.988Z,100.00
2022-11-09T07:52:31.589Z,100.00
2022-11-09T07:54:58.203Z,100.00
2022-11-09T07:57:24.877Z,100.00
2022-11-09T07:59:53.673Z,100.00
2022-11-09T08:02:20.436Z,100.00
2022-11-09T08:04:47.265Z,100.00
2022-11-09T08:07:13.901Z,100.00
2022-11-09T08:09:40.745Z,100.00
2022-11-09T08:12:07.457Z,100.00
2022-11-09T08:14:34.243Z,100.00
2022-11-09T08:17:02.623Z,100.00
2022-11-09T08:19:29.195Z,100.00
2022-11-09T08:21:58.053Z,100.00
2022-11-09T08:24:24.718Z,100.00
2022-11-09T08:26:51.349Z,100.00
2022-11-09T08:29:17.980Z,100.00
2022-11-09T08:31:44.577Z,100.00
2022-11-09T08:34:14.033Z,100.00
2022-11-09T08:36:40.794Z,100.00
2022-11-09T08:39:07.728Z,100.00
2022-11-09T08:41:34.379Z,100.00
2022-11-09T08:44:00.926Z,100.00
2022-11-09T08:46:27.695Z,100.00
2022-11-09T08:48:54.317Z,100.00
2022-11-09T08:51:20.965Z,100.00
2022-11-09T08:53:47.814Z,100.00
2022-11-09T08:56:18.517Z,100.00
2022-11-09T08:58:46.049Z,100.00
2022-11-09T09:01:16.979Z,100.00
2022-11-09T09:03:44.211Z,100.00
2022-11-09T09:06:10.815Z,100.00
2022-11-09T09:08:37.353Z,100.00
2022-11-09T09:11:05.561Z,100.00
2022-11-09T09:13:33.281Z,100.00
2022-11-09T09:16:13.158Z,100.00
2022-11-09T09:18:39.832Z,100.00
2022-11-09T09:21:08.898Z,100.00
2022-11-09T09:23:35.670Z,100.00
2022-11-09T09:26:02.388Z,100.00
2022-11-09T09:28:28.995Z,100.00
2022-11-09T09:31:00.899Z,100.00
2022-11-09T09:33:28.398Z,100.00
2022-11-09T09:35:57.885Z,100.00
2022-11-09T09:38:25.967Z,100.00
2022-11-09T09:41:00.883Z,100.00
2022-11-09T09:43:41.559Z,100.00
2022-11-09T09:46:35.631Z,100.00
2022-11-09T09:49:14.005Z,100.00
2022-11-09T09:51:51.923Z,100.00
2022-11-09T09:54:22.544Z,100.00
2022-11-09T09:56:50.965Z,100.00
2022-11-09T09:59:29.077Z,100.00
2022-11-09T10:01:57.774Z,100.00
2022-11-09T10:04:41.757Z,100.00
2022-11-09T10:07:18.492Z,100.00
2022-11-09T10:10:12.552Z,100.00
2022-11-09T10:13:17.351Z,100.00
2022-11-09T10:16:01.833Z,99.16
2022-11-09T10:18:46.557Z,97.78
2022-11-09T10:21:34.552Z,97.54
2022-11-09T10:24:18.116Z,98.14
2022-11-09T10:26:50.000Z,99.07
2022-11-09T10:29:25.385Z,99.35
2022-11-09T10:32:00.885Z,99.00
2022-11-09T10:34:38.267Z,97.99
2022-11-09T10:37:13.914Z,97.39
2022-11-09T10:39:47.969Z,97.35
2022-11-09T10:42:14.618Z,98.26
2022-11-09T10:44:41.353Z,98.60
2022-11-09T10:47:11.555Z,98.20
2022-11-09T10:49:39.177Z,97.48
2022-11-09T10:52:26.501Z,97.49
2022-11-09T10:54:53.164Z,98.36
2022-11-09T10:57:24.778Z,96.95
2022-11-09T10:59:54.968Z,97.40
2022-11-09T11:02:24.615Z,98.22
2022-11-09T11:05:12.864Z,98.05
2022-11-09T11:07:39.550Z,98.11
2022-11-09T11:10:24.561Z,98.09
2022-11-09T11:13:00.050Z,97.92
2022-11-09T11:15:38.557Z,96.79
2022-11-09T11:18:15.219Z,95.85
2022-11-09T11:20:41.905Z,95.67
2022-11-09T11:23:11.483Z,93.37
2022-11-09T11:25:53.382Z,92.80
2022-11-09T11:28:28.102Z,91.75
2022-11-09T11:30:55.331Z,91.99
2022-11-09T11:33:24.823Z,90.17
2022-11-09T11:36:09.800Z,91.02
2022-11-09T11:38:41.981Z,91.55
2022-11-09T11:41:30.596Z,91.25
2022-11-09T11:44:08.254Z,90.49
2022-11-09T11:46:54.563Z,88.27
2022-11-09T11:49:21.263Z,87.77
2022-11-09T11:52:07.895Z,87.03
2022-11-09T11:54:42.627Z,86.46
2022-11-09T11:57:34.167Z,87.07
2022-11-09T12:00:15.513Z,87.73
2022-11-09T12:02:57.351Z,88.72
2022-11-09T12:05:48.362Z,87.98
2022-11-09T12:08:25.707Z,88.13
2022-11-09T12:11:36.992Z,87.51
2022-11-09T12:14:26.804Z,87.69
2022-11-09T12:17:03.565Z,88.76
2022-11-09T12:19:52.647Z,89.13
2022-11-09T12:22:38.830Z,88.71
2022-11-09T12:25:27.453Z,87.96
2022-11-09T12:28:05.886Z,88.20
2022-11-09T12:30:48.015Z,87.19
2022-11-09T12:33:34.209Z,87.40
2022-11-09T12:36:12.132Z,86.77
2022-11-09T12:38:58.262Z,86.48
2022-11-09T12:41:30.319Z,88.46
2022-11-09T12:44:04.156Z,89.50
2022-11-09T12:46:40.422Z,89.10
2022-11-09T12:49:22.527Z,89.24
2022-11-09T12:51:49.667Z,90.91
2022-11-09T12:54:16.589Z,91.01
2022-11-09T12:56:57.368Z,91.34
2022-11-09T12:59:26.973Z,91.15
2022-11-09T13:01:59.983Z,92.39
2022-11-09T13:04:27.435Z,92.18
2022-11-09T13:07:09.657Z,91.11
2022-11-09T13:09:44.782Z,91.09
2022-11-09T13:12:27.368Z,90.74
2022-11-09T13:14:55.533Z,92.22
2022-11-09T13:17:25.116Z,92.66
2022-11-09T13:19:54.666Z,92.12
2022-11-09T13:22:21.253Z,91.13
2022-11-09T13:24:59.831Z,91.37
2022-11-09T13:27:46.567Z,91.74
2022-11-09T13:30:40.849Z,91.63
2022-11-09T13:33:07.473Z,91.55
2022-11-09T13:35:40.045Z,91.87
2022-11-09T13:38:28.674Z,90.84
2022-11-09T13:40:57.636Z,91.65
2022-11-09T13:43:33.110Z,91.22
2022-11-09T13:46:03.959Z,91.67
2022-11-09T13:48:36.748Z,91.40
2022-11-09T13:51:13.043Z,90.54
2022-11-09T13:53:39.553Z,91.69
2022-11-09T13:56:27.791Z,91.41
2022-11-09T13:59:09.456Z,91.78
2022-11-09T14:01:49.620Z,91.40
2022-11-09T14:04:31.236Z,90.35
2022-11-09T14:07:05.475Z,89.83
2022-11-09T14:10:16.386Z,90.51
2022-11-09T14:12:45.943Z,89.98
2022-11-09T14:15:34.079Z,90.40
2022-11-09T14:18:20.726Z,90.46
2022-11-09T14:20:53.565Z,90.91
2022-11-09T14:23:22.992Z,90.88
2022-11-09T14:25:49.991Z,91.07
2022-11-09T14:28:23.251Z,91.19
2022-11-09T14:30:50.627Z,90.41
2022-11-09T14:33:29.059Z,91.72
2022-11-09T14:35:58.016Z,90.42
2022-11-09T14:38:34.503Z,90.44
2022-11-09T14:41:02.632Z,91.27
2022-11-09T14:43:45.541Z,91.57
2022-11-09T14:46:19.442Z,92.35
2022-11-09T14:48:54.789Z,93.66
2022-11-09T14:51:32.296Z,92.79
2022-11-09T14:54:01.551Z,92.69
2022-11-09T14:56:30.037Z,92.68
2022-11-09T14:58:58.266Z,92.90
2022-11-09T15:01:27.124Z,93.16
2022-11-09T15:04:07.280Z,93.50
2022-11-09T15:06:34.967Z,94.95
2022-11-09T15:09:09.150Z,94.61
2022-11-09T15:11:41.179Z,93.18
2022-11-09T15:14:19.728Z,92.63
2022-11-09T15:16:48.229Z,93.54
2022-11-09T15:19:29.597Z,93.02
2022-11-09T15:21:59.898Z,92.84
2022-11-09T15:24:30.137Z,92.55
2022-11-09T15:26:57.710Z,92.76
2022-11-09T15:29:36.887Z,92.13
2022-11-09T15:32:19.701Z,92.70
2022-11-09T15:34:54.203Z,92.80
2022-11-09T15:37:47.003Z,93.72
2022-11-09T15:40:24.938Z,93.55
2022-11-09T15:42:52.383Z,93.03
2022-11-09T15:45:20.815Z,93.24
2022-11-09T15:47:56.699Z,94.21
2022-11-09T15:50:26.934Z,94.74
2022-11-09T15:52:53.685Z,94.62
2022-11-09T15:55:23.275Z,94.96
2022-11-09T15:57:52.662Z,95.49
2022-11-09T16:00:21.425Z,95.70
2022-11-09T16:02:49.030Z,95.89
2022-11-09T16:05:16.172Z,96.59
2022-11-09T16:07:54.002Z,97.57
2022-11-09T16:10:23.411Z,98.16
2022-11-09T16:12:53.369Z,98.25
2022-11-09T16:15:20.459Z,98.66
2022-11-09T16:17:49.863Z,99.35
2022-11-09T16:20:17.946Z,99.04
2022-11-09T16:22:45.025Z,99.85
2022-11-09T16:25:12.388Z,100.00
2022-11-09T16:27:55.035Z,100.00
2022-11-09T16:30:22.059Z,100.00
2022-11-09T16:32:48.720Z,100.00
2022-11-09T16:35:30.705Z,100.00
2022-11-09T16:37:58.191Z,100.00
2022-11-09T16:40:26.037Z,100.00
2022-11-09T16:42:52.683Z,100.00
2022-11-09T16:45:19.970Z,100.00
2022-11-09T16:47:50.586Z,100.00
2022-11-09T16:50:17.739Z,100.00
2022-11-09T16:52:45.043Z,100.00
2022-11-09T16:55:11.942Z,100.00
2022-11-09T16:57:38.568Z,100.00
2022-11-09T17:00:07.310Z,100.00
2022-11-09T17:02:34.356Z,100.00
2022-11-09T17:05:01.017Z,100.00
2022-11-09T17:07:28.067Z,100.00
2022-11-09T17:09:54.774Z,100.00
2022-11-09T17:12:21.414Z,100.00
2022-11-09T17:14:47.959Z,100.00
2022-11-09T17:17:21.193Z,100.00
2022-11-09T17:19:49.288Z,100.00
2022-11-09T17:22:16.358Z,100.00
2022-11-09T17:24:43.039Z,100.00
2022-11-09T17:27:10.993Z,100.00
2022-11-09T17:29:37.965Z,100.00
2022-11-09T17:32:07.357Z,100.00
2022-11-09T17:34:34.261Z,100.00
2022-11-09T17:37:05.588Z,100.00
2022-11-09T17:39:33.300Z,100.00
2022-11-09T17:42:00.184Z,100.00
2022-11-09T17:44:26.897Z,100.00
2022-11-09T17:46:53.628Z,100.00
2022-11-09T17:49:20.218Z,100.00
2022-11-09T17:51:46.889Z,100.00
2022-11-09T17:54:15.188Z,100.00
2022-11-09T17:56:42.160Z,100.00
2022-11-09T17:59:09.140Z,100.00
2022-11-09T18:01:41.078Z,100.00
2022-11-09T18:04:10.806Z,100.00
2022-11-09T18:06:38.443Z,100.00
2022-11-09T18:11:52.766Z,100.00
2022-11-09T18:14:19.686Z,100.00
2022-11-09T18:16:46.556Z,100.00
2022-11-09T18:19:13.321Z,100.00
2022-11-09T18:21:39.970Z,100.00
2022-11-09T18:24:07.081Z,100.00
2022-11-09T18:26:34.394Z,100.00
2022-11-09T18:29:01.048Z,100.00
2022-11-09T18:31:27.699Z,100.00
2022-11-09T18:33:54.388Z,99.79
2022-11-09T18:36:21.802Z,100.00
2022-11-09T18:38:51.264Z,100.00
2022-11-09T18:41:20.816Z,100.00
2022-11-09T18:43:48.392Z,100.00
2022-11-09T18:46:17.017Z,100.00
2022-11-09T18:48:44.646Z,100.00
2022-11-09T18:51:11.804Z,99.89
2022-11-09T18:53:41.034Z,99.62
2022-11-09T18:56:18.491Z,99.17
2022-11-09T18:58:46.194Z,99.60
2022-11-09T19:01:13.208Z,100.00
2022-11-09T19:03:40.243Z,99.75
2022-11-09T19:06:18.222Z,100.00
2022-11-09T19:09:04.345Z,99.84
2022-11-09T19:11:32.046Z,99.53
2022-11-09T19:13:59.065Z,97.99
2022-11-09T19:16:26.662Z,97.74
2022-11-09T19:18:53.734Z,98.22
2022-11-09T19:21:35.863Z,98.17
2022-11-09T19:24:03.400Z,98.80
2022-11-09T19:26:30.447Z,98.70
2022-11-09T19:28:57.037Z,98.66
2022-11-09T19:31:24.731Z,98.14
2022-11-09T19:33:54.505Z,98.05
2022-11-09T19:36:30.386Z,98.29
2022-11-09T19:38:57.761Z,97.88
2022-11-09T19:41:25.505Z,98.05
2022-11-09T19:43:54.877Z,99.15
2022-11-09T19:46:21.889Z,98.80
2022-11-09T19:48:48.719Z,98.90
2022-11-09T19:51:17.267Z,98.51
2022-11-09T19:53:50.374Z,97.88
2022-11-09T19:56:18.362Z,98.74
2022-11-09T19:58:49.365Z,98.75
2022-11-09T20:01:16.398Z,99.04
2022-11-09T20:03:43.217Z,99.54
2022-11-09T20:06:09.939Z,99.97
2022-11-09T20:08:37.920Z,99.94
2022-11-09T20:11:09.643Z,99.68
2022-11-09T20:13:38.821Z,99.77
2022-11-09T20:16:08.140Z,100.00
2022-11-09T20:18:36.450Z,100.00
2022-11-09T20:21:04.229Z,100.00
2022-11-09T20:23:30.832Z,100.00
2022-11-09T20:26:08.361Z,100.00
2022-11-09T20:28:35.561Z,99.40
2022-11-09T20:31:09.050Z,100.00
2022-11-09T20:33:35.590Z,100.00
2022-11-09T20:36:02.278Z,100.00
2022-11-09T20:38:29.455Z,100.00
2022-11-09T20:40:57.884Z,99.77
2022-11-09T20:43:25.979Z,100.00
2022-11-09T20:45:53.233Z,99.88
2022-11-09T20:48:46.964Z,100.00
2022-11-09T20:51:09.092Z,100.00
2022-11-09T20:53:36.476Z,100.00
2022-11-09T20:56:03.734Z,100.00
2022-11-09T20:58:30.439Z,100.00
2022-11-09T21:01:09.130Z,100.00
2022-11-09T21:03:35.840Z,100.00
2022-11-09T21:06:05.098Z,100.00
2022-11-09T21:08:33.410Z,100.00
2022-11-09T21:11:01.708Z,100.00
2022-11-09T21:13:28.841Z,100.00
2022-11-09T21:15:55.430Z,100.00
2022-11-09T21:18:22.586Z,100.00
2022-11-09T21:20:49.475Z,100.00
2022-11-09T21:23:16.081Z,100.00
2022-11-09T21:26:02.621Z,100.00
2022-11-09T21:28:48.192Z,100.00
2022-11-09T21:31:15.069Z,100.00
2022-11-09T21:33:41.668Z,100.00
2022-11-09T21:36:13.400Z,100.00
2022-11-09T21:38:40.337Z,100.00
2022-11-09T21:41:27.409Z,100.00
2022-11-09T21:43:55.124Z,100.00
2022-11-09T21:46:22.994Z,100.00
2022-11-09T21:48:50.505Z,100.00
2022-11-09T21:51:17.746Z,100.00
2022-11-09T21:53:44.357Z,100.00
2022-11-09T21:56:11.357Z,100.00
2022-11-09T21:58:37.928Z,100.00
2022-11-09T22:01:10.719Z,100.00
2022-11-09T22:03:38.183Z,100.00
2022-11-09T22:06:05.301Z,100.00
2022-11-09T22:08:31.802Z,100.00
2022-11-09T22:11:06.825Z,100.00
2022-11-09T22:13:52.751Z,100.00
2022-11-09T22:16:20.737Z,100.00
2022-11-09T22:19:06.176Z,100.00
2022-11-09T22:21:33.173Z,100.00
2022-11-09T22:24:00.741Z,100.00
2022-11-09T22:26:28.983Z,100.00
2022-11-09T22:28:57.223Z,100.00
2022-11-09T22:31:24.493Z,100.00
2022-11-09T22:33:51.582Z,100.00
2022-11-09T22:36:18.702Z,100.00
2022-11-09T22:38:46.549Z,100.00
2022-11-09T22:41:14.776Z,100.00
2022-11-09T22:43:42.906Z,100.00
2022-11-09T22:46:17.249Z,100.00
2022-11-09T22:48:44.604Z,100.00
2022-11-09T22:51:16.357Z,100.00
2022-11-09T22:53:43.024Z,100.00
2022-11-09T22:56:11.158Z,100.00
2022-11-09T22:58:37.853Z,100.00
2022-11-09T23:01:16.179Z,100.00
2022-11-09T23:03:42.985Z,100.00
2022-11-09T23:06:20.892Z,100.00
2022-11-09T23:08:47.940Z,100.00
2022-11-09T23:11:20.681Z,100.00
2022-11-09T23:13:52.029Z,100.00
2022-11-09T23:16:19.123Z,100.00
2022-11-09T23:18:55.093Z,100.00
2022-11-09T23:21:31.345Z,100.00
2022-11-09T23:24:02.468Z,100.00
2022-11-09T23:26:29.691Z,100.00
2022-11-09T23:28:56.894Z,100.00
2022-11-09T23:31:24.856Z,100.00
2022-11-09T23:33:54.568Z,99.92
2022-11-09T23:36:22.786Z,100.00
2022-11-09T23:38:49.747Z,100.00
2022-11-09T23:41:17.006Z,100.00
2022-11-09T23:43:48.737Z,100.00
2022-11-09T23:46:16.557Z,100.00
2022-11-09T23:48:43.445Z,99.86
2022-11-09T23:51:10.419Z,99.77
2022-11-09T23:53:37.295Z,100.00
2022-11-09T23:56:09.171Z,99.59
2022-11-09T23:58:36.683Z,99.58
